Current | Forecast
Updated: 12:38 PM JST on September 20, 2017
Observed at Shizuhama AB, Japan
Temperature 77°F
Humidity 61%
Dew Point 63°F
Wind West at 15 mph
Pressure 29.77 in (Falling)
Conditions Light Rain Showers
Visibility 6.2 miles
UV 5 out of 16
Clouds (FEW) : 3000 ft
Scattered Clouds (SCT) : 12000 ft
Mostly Cloudy (BKN) : 15000 ft
Yesterday's Maximum 82°F
Yesterday's Minimum 72°F approx.
Yesterday's Cooling Degree Days 12 approx.
Sunrise5:30 AM JST
Sunset5:43 PM JST
Moon Rise5:08 AM JST
Moon Set5:56 PM JST
Moon PhaseMoon Phase
Waning Crescent
Raw METARSPECI RJNY 200338Z 26013KT 9999 -SHRA FEW030 SCT120 BKN150 25/17 Q1008 RMK 1CU030 3AC120 5AC150 A2977


Monday
. High: 71° F.
Tuesday
. High: 71° F.
Wednesday
. High: 68° F.
Thursday
. High: 69° F.
Friday
. High: 71° F.
Saturday
. High: 71° F.
Sunday
. High: 68° F.
Monday
. High: 68° F.

Units: English | Metric

Find the Weather for any City, State or Zipcode, or Country:

U.S. State List | Severe Weather | Tropical Storms | Ski Conditions
United States | Canada | Central America | South America | Asia | Europe | Australia | Africa | Islands

Weather Underground

© Copyright 2017
The Weather Company, LLC